Time;durP1;ratioP1;P1;durP2;ratioP2;P2;SDS_P1;SDS_P2;PMS_P1;PMS_P2;Temp;Humidity;BMP_temperature;BMP_pressure;BME280_temperature;BME280_humidity;BME280_pressure;Samples;Min_cycle;Max_cycle;Signal;HPM_P1;HPM_P2
2023/12/13 00:00:23;;;;;;;;;2.25;1.50;;;;;-146.67;56.58;73932.97;5062021;28;61771;-74
2023/12/13 00:02:48;;;;;;;;;3.00;1.00;;;;;-146.67;56.32;73932.97;5061256;28;61702;-74
2023/12/13 00:05:14;;;;;;;;;4.25;2.50;;;;;-146.67;56.41;73922.97;5075166;28;61815;-74
2023/12/13 00:07:39;;;;;;;;;2.50;1.50;;;;;-146.67;56.27;73920.97;5061330;28;61872;-74
2023/12/13 00:10:05;;;;;;;;;3.00;2.00;;;;;-146.67;56.33;73920.97;5060864;28;62123;-74
2023/12/13 00:12:30;;;;;;;;;3.50;3.25;;;;;-146.67;56.27;73911.00;5061096;28;62114;-74
2023/12/13 00:14:56;;;;;;;;;1.25;1.00;;;;;-146.67;56.16;73917.00;5061483;28;61984;-74
2023/12/13 00:17:21;;;;;;;;;2.00;1.00;;;;;-146.67;55.99;73918.97;5061060;28;61807;-74
2023/12/13 00:19:47;;;;;;;;;2.00;1.00;;;;;-146.67;56.26;73920.97;5061560;28;62140;-74
2023/12/13 00:22:12;;;;;;;;;2.00;1.25;;;;;-146.67;55.77;73928.97;5060159;28;61952;-74
2023/12/13 00:24:38;;;;;;;;;1.25;0.25;;;;;-146.67;55.83;73940.94;5053795;28;61816;-74
2023/12/13 00:27:03;;;;;;;;;1.50;1.00;;;;;-146.67;55.80;73934.94;5041934;28;62089;-74
2023/12/13 00:29:29;;;;;;;;;5.00;3.00;;;;;-146.67;55.75;73940.94;5042078;28;61999;-74
2023/12/13 00:31:54;;;;;;;;;3.25;2.00;;;;;-146.67;55.82;73944.94;5058787;28;61983;-74
2023/12/13 00:34:20;;;;;;;;;2.00;2.00;;;;;-146.67;55.96;73946.94;5061617;28;61789;-74
2023/12/13 00:36:45;;;;;;;;;6.25;1.75;;;;;-146.67;55.86;73930.97;5061990;28;61836;-74
2023/12/13 00:39:11;;;;;;;;;4.00;2.50;;;;;-146.67;55.84;73924.97;5059156;28;61708;-74
2023/12/13 00:41:37;;;;;;;;;1.75;1.00;;;;;-146.67;55.64;73920.97;5057277;28;62042;-74
2023/12/13 00:44:03;;;;;;;;;0.75;0.75;;;;;-146.67;55.65;73924.97;5060152;28;62602;-74
2023/12/13 00:46:28;;;;;;;;;1.50;1.50;;;;;-146.67;55.64;73928.97;5059835;28;62201;-74
2023/12/13 00:48:54;;;;;;;;;0.75;0.50;;;;;-146.67;55.66;73926.97;5064951;28;61896;-74
2023/12/13 00:51:21;;;;;;;;;4.50;1.00;;;;;-146.67;55.80;73930.97;5063053;28;63759;-74
2023/12/13 00:53:47;;;;;;;;;1.00;1.00;;;;;-146.67;55.64;73936.94;5065623;28;61747;-74
2023/12/13 00:56:14;;;;;;;;;2.25;1.00;;;;;-146.67;55.80;73934.94;5065215;28;62213;-74
2023/12/13 00:58:39;;;;;;;;;1.00;1.00;;;;;-146.67;55.74;73940.94;5065425;28;61789;-74
2023/12/13 01:01:08;;;;;;;;;0.75;0.50;;;;;-146.67;55.56;73938.94;5063566;28;62726;-74
2023/12/13 01:03:33;;;;;;;;;6.00;2.00;;;;;-146.67;55.45;73942.94;5063867;28;61989;-74
2023/12/13 01:05:59;;;;;;;;;3.50;2.00;;;;;-146.67;55.43;73948.94;5065005;28;61970;-74
2023/12/13 01:08:24;;;;;;;;;2.00;0.25;;;;;-146.67;55.53;73944.94;5064915;28;62174;-74
2023/12/13 01:10:49;;;;;;;;;1.50;1.00;;;;;-146.67;55.40;73948.94;5064186;28;62737;-74
2023/12/13 01:13:15;;;;;;;;;1.75;1.00;;;;;-146.67;55.50;73952.91;5063581;28;62002;-74
2023/12/13 01:15:40;;;;;;;;;4.75;2.00;;;;;-146.67;55.36;73950.94;5064600;28;61903;-74
2023/12/13 01:18:05;;;;;;;;;1.25;0.25;;;;;-146.67;55.44;73956.91;5065028;28;61929;-74
2023/12/13 01:20:31;;;;;;;;;3.00;1.00;;;;;-146.67;55.36;73954.91;5060302;28;61907;-74
2023/12/13 01:22:57;;;;;;;;;4.00;1.00;;;;;-146.67;55.39;73958.91;5044736;28;61699;-74
2023/12/13 01:25:22;;;;;;;;;3.25;0.00;;;;;-146.67;55.42;73958.91;5058108;28;61923;-74
2023/12/13 01:27:47;;;;;;;;;2.50;1.00;;;;;-146.67;55.33;73954.91;5065189;28;61987;-74
2023/12/13 01:30:13;;;;;;;;;5.50;1.00;;;;;-146.67;55.47;73964.91;5063602;28;61936;-74
2023/12/13 01:32:38;;;;;;;;;2.00;0.00;;;;;-146.67;55.51;73970.88;5063852;28;61884;-74
2023/12/13 01:35:05;;;;;;;;;3.00;2.00;;;;;-146.67;55.50;73976.88;5064723;28;61706;-74
2023/12/13 01:37:30;;;;;;;;;1.00;1.00;;;;;-146.67;55.65;73980.88;5064398;28;62134;-74
2023/12/13 01:39:56;;;;;;;;;3.75;0.25;;;;;-146.67;55.83;73970.88;5063873;28;62582;-74
2023/12/13 01:42:24;;;;;;;;;3.00;1.00;;;;;-146.67;55.54;73974.88;5064303;28;62049;-74
2023/12/13 01:44:50;;;;;;;;;5.00;1.75;;;;;-146.67;55.65;73974.88;5064210;28;62301;-74
2023/12/13 01:47:16;;;;;;;;;2.25;1.00;;;;;-146.67;55.61;73976.88;5064128;28;61844;-74
2023/12/13 01:49:43;;;;;;;;;0.00;0.00;;;;;-146.67;55.56;73982.88;5063359;28;61833;-74
2023/12/13 01:52:09;;;;;;;;;3.25;1.00;;;;;-146.67;55.56;73984.84;5064254;28;61742;-74
2023/12/13 01:54:37;;;;;;;;;1.50;1.00;;;;;-146.67;55.41;73992.84;5064328;28;62134;-74
2023/12/13 01:57:03;;;;;;;;;4.00;1.00;;;;;-146.67;55.52;73992.84;5064339;28;62026;-74
2023/12/13 01:59:29;;;;;;;;;0.75;0.00;;;;;-146.67;55.19;73990.84;5062061;28;61836;-74
2023/12/13 02:01:56;;;;;;;;;2.50;2.50;;;;;-146.67;55.22;73986.84;5062266;28;62104;-74
2023/12/13 02:04:25;;;;;;;;;5.00;1.00;;;;;-146.67;55.19;73990.84;5062627;28;61945;-74
2023/12/13 02:06:51;;;;;;;;;1.50;1.50;;;;;-146.67;55.19;73994.84;5064025;28;62366;-74
2023/12/13 02:09:16;;;;;;;;;3.25;0.50;;;;;-146.67;55.19;74008.81;5054318;28;61902;-74
2023/12/13 02:11:42;;;;;;;;;1.00;1.00;;;;;-146.67;55.13;73996.84;5042157;28;61860;-74
2023/12/13 02:14:07;;;;;;;;;1.00;1.00;;;;;-146.67;54.81;73990.84;5042652;28;62173;-74
2023/12/13 02:16:34;;;;;;;;;3.50;0.50;;;;;-146.67;54.97;73990.84;5043154;28;62115;-74
2023/12/13 02:18:59;;;;;;;;;0.00;0.00;;;;;-146.67;54.49;74004.81;5057645;28;61827;-74
2023/12/13 02:21:25;;;;;;;;;1.00;1.00;;;;;-146.67;54.94;74010.81;5059675;28;62541;-74
2023/12/13 02:23:54;;;;;;;;;0.25;0.25;;;;;-146.67;54.93;74008.81;5063642;28;61915;-74
2023/12/13 02:26:19;;;;;;;;;1.00;1.00;;;;;-146.67;54.73;74018.78;5063895;28;61874;-74
2023/12/13 02:28:46;;;;;;;;;0.25;0.25;;;;;-146.67;54.84;74016.78;5061419;28;64489;-74
2023/12/13 02:31:12;;;;;;;;;2.00;1.00;;;;;-146.67;54.63;74020.78;5062115;28;61900;-74
2023/12/13 02:33:40;;;;;;;;;2.25;1.25;;;;;-146.67;54.75;74014.81;5063396;28;61963;-75
2023/12/13 02:36:06;;;;;;;;;0.00;0.00;;;;;-146.67;54.70;74020.78;5063842;28;61797;-74
2023/12/13 02:38:31;;;;;;;;;0.50;0.00;;;;;-146.67;54.70;74022.78;5061192;28;64499;-74
2023/12/13 02:40:56;;;;;;;;;1.00;0.00;;;;;-146.67;54.66;74024.78;5053388;28;61735;-74
2023/12/13 02:43:22;;;;;;;;;3.75;0.00;;;;;-146.67;54.92;74020.78;5043283;28;62219;-75
2023/12/13 02:45:47;;;;;;;;;0.00;0.00;;;;;-146.67;54.93;74014.81;5043099;28;61745;-75
2023/12/13 02:48:12;;;;;;;;;2.00;2.00;;;;;-146.67;54.75;74018.78;5042790;28;61732;-74
2023/12/13 02:50:38;;;;;;;;;6.00;0.50;;;;;-146.67;54.89;74014.81;5042481;28;61698;-74
2023/12/13 02:53:05;;;;;;;;;2.00;1.00;;;;;-146.67;54.94;74002.81;5043459;28;62235;-74
2023/12/13 02:55:31;;;;;;;;;1.00;1.00;;;;;-146.67;54.84;74012.81;5042021;28;61766;-74
2023/12/13 02:57:56;;;;;;;;;1.00;0.00;;;;;-146.67;54.71;74008.81;5043796;28;61918;-74
2023/12/13 03:00:21;;;;;;;;;4.00;1.00;;;;;-146.67;54.82;74002.81;5063285;28;61888;-74
2023/12/13 03:02:47;;;;;;;;;1.75;0.00;;;;;-146.67;54.76;74008.81;5062652;28;62232;-74
2023/12/13 03:05:12;;;;;;;;;2.00;1.00;;;;;-146.67;54.82;74014.81;5063302;28;62143;-74
2023/12/13 03:07:41;;;;;;;;;1.75;1.00;;;;;-146.67;54.83;74010.81;5060853;28;65059;-74
2023/12/13 03:10:07;;;;;;;;;0.25;0.00;;;;;-146.67;55.03;74012.81;5062341;28;61787;-74
2023/12/13 03:12:33;;;;;;;;;2.50;1.00;;;;;-146.67;55.03;74018.78;5062245;28;61886;-74
2023/12/13 03:14:58;;;;;;;;;1.00;0.00;;;;;-146.67;55.07;74022.78;5062868;28;61847;-74
2023/12/13 03:17:24;;;;;;;;;1.00;1.00;;;;;-146.67;54.95;74016.78;5062387;28;61721;-74
2023/12/13 03:19:49;;;;;;;;;1.00;0.00;;;;;-146.67;54.86;74020.78;5062434;28;61678;-74
2023/12/13 03:22:14;;;;;;;;;1.50;0.00;;;;;-146.67;55.06;74012.81;5062394;28;62047;-74
2023/12/13 03:24:40;;;;;;;;;3.75;1.00;;;;;-146.67;54.86;74014.81;5063150;28;61810;-74
2023/12/13 03:27:05;;;;;;;;;1.00;1.00;;;;;-146.67;54.88;74016.78;5060679;28;62524;-74
2023/12/13 03:29:31;;;;;;;;;0.00;0.00;;;;;-146.67;54.96;74016.78;5061355;28;61949;-74
2023/12/13 03:31:56;;;;;;;;;1.00;0.00;;;;;-146.67;54.75;74016.78;5059175;28;62053;-74
2023/12/13 03:34:22;;;;;;;;;1.00;0.00;;;;;-146.67;54.84;74026.78;5061598;28;62150;-74
2023/12/13 03:36:47;;;;;;;;;3.00;0.50;;;;;-146.67;54.96;74034.75;5060519;28;63784;-74
2023/12/13 03:39:13;;;;;;;;;3.25;1.00;;;;;-146.67;54.99;74024.78;5055191;28;61889;-74
2023/12/13 03:41:38;;;;;;;;;1.00;0.00;;;;;-146.67;54.97;74016.78;5062187;28;61872;-74
2023/12/13 03:44:03;;;;;;;;;3.50;2.25;;;;;-146.67;54.90;74016.78;5062756;28;61899;-74
2023/12/13 03:46:29;;;;;;;;;2.75;1.00;;;;;-146.67;54.70;74018.78;5061647;28;62425;-74
2023/12/13 03:48:54;;;;;;;;;5.50;1.00;;;;;-146.67;54.74;74020.78;5056766;28;61791;-74
2023/12/13 03:51:20;;;;;;;;;3.50;1.00;;;;;-146.67;54.91;74016.78;5042429;28;61822;-74
2023/12/13 03:53:46;;;;;;;;;2.00;1.00;;;;;-146.67;54.99;74012.81;5047079;28;61992;-74
2023/12/13 03:56:12;;;;;;;;;2.00;1.00;;;;;-146.67;54.92;74002.81;5061346;28;61920;-74
2023/12/13 03:58:38;;;;;;;;;1.00;0.00;;;;;-146.67;54.74;74004.81;5061142;28;62021;-74
2023/12/13 04:01:03;;;;;;;;;3.00;0.00;;;;;-146.67;54.76;74006.81;5050989;28;61943;-74
2023/12/13 04:03:29;;;;;;;;;1.00;1.00;;;;;-146.67;54.97;74006.81;5041089;28;62088;-74
2023/12/13 04:05:54;;;;;;;;;2.00;1.00;;;;;-146.67;54.78;74014.81;5039853;28;63745;-74
2023/12/13 04:08:19;;;;;;;;;0.25;0.25;;;;;-146.67;54.76;74010.81;5042234;28;61769;-74
2023/12/13 04:10:45;;;;;;;;;5.00;1.50;;;;;-146.67;54.89;74004.81;5040230;28;62075;-74
2023/12/13 04:13:10;;;;;;;;;2.00;0.25;;;;;-146.67;55.03;73998.84;5040876;28;62199;-74
2023/12/13 04:15:35;;;;;;;;;2.00;1.75;;;;;-146.67;54.92;74000.81;5039850;28;63583;-74
2023/12/13 04:18:01;;;;;;;;;1.00;0.75;;;;;-146.67;54.93;73998.84;5040485;28;61749;-74
2023/12/13 04:20:26;;;;;;;;;2.00;0.00;;;;;-146.67;54.94;74000.81;5044934;28;61922;-74
2023/12/13 04:22:52;;;;;;;;;3.00;1.00;;;;;-146.67;55.06;74004.81;5061598;28;61835;-74
2023/12/13 04:25:18;;;;;;;;;2.50;0.00;;;;;-146.67;55.04;74000.81;5061052;28;61854;-75
2023/12/13 04:27:45;;;;;;;;;1.00;0.00;;;;;-146.67;54.89;73996.84;5061943;28;61828;-74
2023/12/13 04:30:11;;;;;;;;;3.50;1.00;;;;;-146.67;55.00;73986.84;5041743;28;61845;-74
2023/12/13 04:32:39;;;;;;;;;2.25;1.00;;;;;-146.67;55.11;73984.84;5042482;28;62003;-74
2023/12/13 04:35:06;;;;;;;;;1.00;1.00;;;;;-146.67;54.67;73982.88;5041116;28;63470;-74
2023/12/13 04:37:31;;;;;;;;;4.00;2.00;;;;;-146.67;54.82;73980.88;5046249;28;61928;-74
2023/12/13 04:39:57;;;;;;;;;0.75;0.75;;;;;-146.67;54.92;73986.84;5054332;28;61968;-74
2023/12/13 04:42:23;;;;;;;;;2.50;1.25;;;;;-146.67;54.97;73986.84;5060554;28;62070;-74
2023/12/13 04:44:49;;;;;;;;;1.00;0.00;;;;;-146.67;54.97;73992.84;5061267;28;62526;-74
2023/12/13 04:47:14;;;;;;;;;0.75;0.75;;;;;-146.67;55.03;73990.84;5061300;28;61760;-74
2023/12/13 04:49:40;;;;;;;;;1.00;1.00;;;;;-146.67;55.20;74004.81;5061340;28;62020;-74
2023/12/13 04:52:05;;;;;;;;;1.00;1.00;;;;;-146.67;55.39;74006.81;5061519;28;61824;-74
2023/12/13 04:54:30;;;;;;;;;0.25;0.00;;;;;-146.67;55.38;74010.81;5060893;28;62016;-74
2023/12/13 04:56:56;;;;;;;;;3.00;1.00;;;;;-146.67;55.43;74010.81;5061707;28;61806;-74
2023/12/13 04:59:21;;;;;;;;;2.25;0.75;;;;;-146.67;55.58;74010.81;5061234;28;62250;-74
2023/12/13 05:01:46;;;;;;;;;1.50;1.50;;;;;-146.67;55.36;74014.81;5061505;28;62043;-74
2023/12/13 05:04:12;;;;;;;;;2.50;0.00;;;;;-146.67;55.41;74010.81;5060721;28;62599;-74
2023/12/13 05:06:37;;;;;;;;;3.00;0.00;;;;;-146.67;55.50;74020.78;5061575;28;61847;-74
2023/12/13 05:09:03;;;;;;;;;1.25;1.00;;;;;-146.67;55.45;74020.78;5059676;28;62158;-74
2023/12/13 05:11:28;;;;;;;;;0.00;0.00;;;;;-146.67;55.55;74018.78;5060989;28;61832;-74
2023/12/13 05:13:53;;;;;;;;;0.50;0.50;;;;;-146.67;55.68;74008.81;5061026;28;61927;-74
2023/12/13 05:16:19;;;;;;;;;0.75;0.50;;;;;-146.67;55.52;74006.81;5048786;28;62018;-74
2023/12/13 05:18:44;;;;;;;;;3.00;1.00;;;;;-146.67;55.46;73998.84;5039772;28;61822;-74
2023/12/13 05:21:10;;;;;;;;;0.50;0.00;;;;;-146.67;55.42;73990.84;5051021;28;62129;-74
2023/12/13 05:23:36;;;;;;;;;1.25;1.25;;;;;-146.67;55.20;73990.84;5060512;28;61940;-74
2023/12/13 05:26:01;;;;;;;;;2.00;0.75;;;;;-146.67;55.09;73986.84;5059151;28;62259;-74
2023/12/13 05:28:27;;;;;;;;;2.25;0.00;;;;;-146.67;55.11;73986.84;5041072;28;62025;-74
2023/12/13 05:30:52;;;;;;;;;7.00;0.00;;;;;-146.67;55.02;73980.88;5040834;28;62421;-74
2023/12/13 05:33:18;;;;;;;;;1.00;1.00;;;;;-146.67;55.08;73990.84;5059542;28;62295;-74
2023/12/13 05:35:45;;;;;;;;;6.00;0.75;;;;;-146.67;55.28;73996.84;5084748;27;61908;-74
2023/12/13 05:38:12;;;;;;;;;0.50;0.50;;;;;-146.67;55.20;73994.84;5067803;27;61943;-74
2023/12/13 05:40:38;;;;;;;;;1.00;1.00;;;;;-146.67;55.30;74008.81;5064786;28;61951;-75
2023/12/13 05:43:04;;;;;;;;;2.50;1.00;;;;;-146.67;55.36;74008.81;5052638;28;61865;-74
2023/12/13 05:45:29;;;;;;;;;6.25;0.50;;;;;-146.67;55.35;74006.81;5058085;28;61718;-74
2023/12/13 05:47:55;;;;;;;;;3.00;1.00;;;;;-146.67;55.39;74012.81;5064010;28;62170;-74
2023/12/13 05:50:20;;;;;;;;;2.00;0.25;;;;;-146.67;55.32;74010.81;5062447;28;62389;-74
2023/12/13 05:52:45;;;;;;;;;2.00;1.00;;;;;-146.67;55.25;74008.81;5061751;28;63808;-74
2023/12/13 05:55:11;;;;;;;;;0.75;0.75;;;;;-146.67;55.45;74016.78;5064472;28;61800;-74
2023/12/13 05:57:37;;;;;;;;;2.75;1.00;;;;;-146.67;55.53;74026.78;5063961;28;62130;-74
2023/12/13 06:00:06;;;;;;;;;3.00;2.00;;;;;-146.67;55.70;74022.78;5053887;28;61753;-74
2023/12/13 06:02:33;;;;;;;;;2.75;2.00;;;;;-146.67;55.53;74020.78;5042935;28;62071;-74
2023/12/13 06:04:58;;;;;;;;;0.75;0.75;;;;;-146.67;55.49;74026.78;5052785;28;61961;-74
2023/12/13 06:07:23;;;;;;;;;2.50;1.00;;;;;-146.67;55.56;74028.78;5073428;28;61772;-76
2023/12/13 06:09:49;;;;;;;;;1.00;0.25;;;;;-146.67;55.59;74034.75;5083286;27;62194;-75
2023/12/13 06:12:16;;;;;;;;;1.25;1.00;;;;;-146.67;55.58;74044.75;5061975;27;61764;-75
2023/12/13 06:14:41;;;;;;;;;1.50;0.00;;;;;-146.67;55.59;74048.75;5061866;28;61762;-74
2023/12/13 06:17:07;;;;;;;;;1.25;0.00;;;;;-146.67;55.67;74060.72;5064888;28;61969;-74
2023/12/13 06:19:32;;;;;;;;;0.25;0.25;;;;;-146.67;55.80;74062.72;5062720;28;61920;-75
2023/12/13 06:21:58;;;;;;;;;0.50;0.00;;;;;-146.67;55.88;74064.72;5060310;28;62615;-74
2023/12/13 06:24:23;;;;;;;;;0.50;0.00;;;;;-146.67;55.92;74058.72;5042992;28;62063;-74
2023/12/13 06:26:50;;;;;;;;;2.00;0.50;;;;;-146.67;55.81;74062.72;5058410;28;62166;-74
2023/12/13 06:29:16;;;;;;;;;2.00;1.00;;;;;-146.67;55.78;74058.72;5053123;27;61948;-74
2023/12/13 06:31:41;;;;;;;;;2.00;0.00;;;;;-146.67;55.58;74066.69;5055379;28;63672;-74
2023/12/13 06:34:06;;;;;;;;;1.00;0.00;;;;;-146.67;55.61;74068.69;5057499;28;61809;-74
2023/12/13 06:36:32;;;;;;;;;2.00;1.00;;;;;-146.67;55.43;74068.69;5042446;28;61919;-74
2023/12/13 06:38:58;;;;;;;;;1.25;1.00;;;;;-146.67;55.66;74068.69;5042832;28;61736;-74
2023/12/13 06:41:23;;;;;;;;;4.00;1.50;;;;;-146.67;55.65;74064.72;5050992;28;61952;-74
2023/12/13 06:43:48;;;;;;;;;0.50;0.00;;;;;-146.67;55.66;74066.69;5052523;28;61869;-73
2023/12/13 06:46:14;;;;;;;;;4.25;0.75;;;;;-146.67;55.50;74064.72;5042231;28;61833;-74
2023/12/13 06:48:39;;;;;;;;;1.00;0.00;;;;;-146.67;55.53;74064.72;5041992;28;61901;-75
2023/12/13 06:51:06;;;;;;;;;1.50;0.50;;;;;-146.67;55.50;74072.69;5040826;28;61849;-75
2023/12/13 06:53:32;;;;;;;;;1.00;1.00;;;;;-146.67;55.20;74078.69;5047804;28;62085;-75
2023/12/13 06:55:58;;;;;;;;;3.50;1.00;;;;;-146.67;55.46;74078.69;5051057;28;61863;-75
2023/12/13 06:58:24;;;;;;;;;1.00;1.00;;;;;-146.67;55.47;74078.69;5050816;28;62134;-75
2023/12/13 07:00:49;;;;;;;;;0.00;0.00;;;;;-146.67;55.32;74072.69;5052078;28;61919;-75
2023/12/13 07:03:14;;;;;;;;;1.25;1.25;;;;;-146.67;55.16;74072.69;5043769;28;61858;-75
2023/12/13 07:05:40;;;;;;;;;4.50;1.00;;;;;-146.67;55.16;74072.69;5061479;28;61797;-75
2023/12/13 07:08:05;;;;;;;;;2.50;0.00;;;;;-146.67;55.15;74070.69;5060587;28;61775;-75
2023/12/13 07:10:31;;;;;;;;;3.25;1.75;;;;;-146.67;55.02;74076.69;5061947;28;61882;-74
2023/12/13 07:12:56;;;;;;;;;2.00;2.00;;;;;-146.67;55.14;74068.69;5062142;28;61875;-74
2023/12/13 07:15:22;;;;;;;;;6.00;1.75;;;;;-146.67;54.89;74058.72;5062926;28;61920;-74
2023/12/13 07:17:47;;;;;;;;;3.00;1.75;;;;;-146.67;54.95;74066.69;5062258;28;61744;-74
2023/12/13 07:20:13;;;;;;;;;6.00;0.75;;;;;-146.67;55.25;74062.72;5059818;28;63459;-74
2023/12/13 07:22:39;;;;;;;;;0.50;0.50;;;;;-146.67;54.92;74058.72;5062266;28;61692;-74
2023/12/13 07:25:06;;;;;;;;;1.00;1.00;;;;;-146.67;54.83;74052.72;5062455;28;61639;-74
2023/12/13 07:27:32;;;;;;;;;1.75;1.75;;;;;-146.67;54.59;74052.72;5042712;28;62043;-74
2023/12/13 07:29:58;;;;;;;;;2.00;1.00;;;;;-146.67;54.67;74052.72;5066189;28;61910;-74
2023/12/13 07:32:23;;;;;;;;;1.25;1.00;;;;;-146.67;54.60;74046.75;5075847;27;61863;-74
2023/12/13 07:34:48;;;;;;;;;2.25;2.25;;;;;-146.67;54.25;74056.72;5062025;28;61951;-74
2023/12/13 07:37:14;;;;;;;;;1.00;0.00;;;;;-146.67;54.35;74054.72;5060815;28;62207;-74
2023/12/13 07:39:39;;;;;;;;;8.50;2.00;;;;;-146.67;54.53;74054.72;5061705;28;61809;-75
2023/12/13 07:42:05;;;;;;;;;2.50;0.00;;;;;-146.67;54.67;74056.72;5061787;28;61865;-74
2023/12/13 07:44:32;;;;;;;;;0.50;0.50;;;;;-146.67;54.65;74052.72;5061517;28;61952;-74
2023/12/13 07:46:58;;;;;;;;;2.00;1.00;;;;;-146.67;54.14;74052.72;5061130;28;62185;-73
2023/12/13 07:49:24;;;;;;;;;1.00;1.00;;;;;-146.67;54.20;74048.75;5075949;28;64708;-74
2023/12/13 07:51:49;;;;;;;;;2.00;0.75;;;;;-146.67;54.20;74040.75;5061686;28;62153;-74
2023/12/13 07:54:16;;;;;;;;;1.50;1.50;;;;;-146.67;53.94;74048.75;5061682;28;61846;-74
2023/12/13 07:56:45;;;;;;;;;2.25;1.00;;;;;-146.67;53.95;74056.72;5061512;28;61867;-74
2023/12/13 07:59:11;;;;;;;;;1.00;0.00;;;;;-146.67;53.95;74060.72;5061066;28;61777;-74
2023/12/13 08:01:36;;;;;;;;;0.50;0.00;;;;;-146.67;54.11;74076.69;5061224;28;61844;-74
2023/12/13 08:04:01;;;;;;;;;0.00;0.00;;;;;-146.67;54.21;74064.72;5056049;28;61796;-74
2023/12/13 08:06:27;;;;;;;;;0.50;0.50;;;;;-146.67;54.28;74054.72;5042125;28;61806;-74
2023/12/13 08:08:52;;;;;;;;;0.00;0.00;;;;;-146.67;53.98;74050.72;5041032;28;61742;-74
2023/12/13 08:11:17;;;;;;;;;1.50;1.00;;;;;-146.67;54.29;74050.72;5041439;28;61727;-73
2023/12/13 08:13:43;;;;;;;;;1.00;0.00;;;;;-146.67;53.79;74050.72;5041746;28;62071;-74
2023/12/13 08:16:09;;;;;;;;;3.00;0.75;;;;;-146.67;53.54;74040.75;5040998;28;61763;-73
2023/12/13 08:18:36;;;;;;;;;1.25;1.00;;;;;-146.67;53.93;74044.75;5055767;28;61828;-74
2023/12/13 08:21:03;;;;;;;;;0.00;0.00;;;;;-146.67;53.23;74042.75;5057563;28;62032;-73
2023/12/13 08:23:29;;;;;;;;;2.00;0.75;;;;;-146.67;53.23;74034.75;5061190;28;62056;-74
2023/12/13 08:25:55;;;;;;;;;1.00;1.00;;;;;-146.67;53.15;74036.75;5052209;28;61883;-74
2023/12/13 08:28:21;;;;;;;;;4.00;3.00;;;;;-146.67;53.42;74022.78;5054351;28;61985;-73
2023/12/13 08:30:47;;;;;;;;;0.50;0.25;;;;;-146.67;52.80;74012.81;5070894;28;62017;-72
2023/12/13 08:33:12;;;;;;;;;1.50;1.00;;;;;-146.67;52.80;74018.78;5060937;28;61764;-73
2023/12/13 08:35:38;;;;;;;;;6.00;0.00;;;;;-146.67;52.42;74028.78;5061638;28;62092;-72
2023/12/13 08:38:04;;;;;;;;;2.00;1.00;;;;;-146.67;52.69;74028.78;5060552;28;62608;-73
2023/12/13 08:40:29;;;;;;;;;0.00;0.00;;;;;-146.67;52.74;74028.78;5060942;28;61922;-72
2023/12/13 08:42:54;;;;;;;;;1.00;0.00;;;;;-146.67;52.78;74028.78;5061415;28;61711;-72
2023/12/13 08:45:20;;;;;;;;;0.25;0.25;;;;;-146.67;52.84;74022.78;5076386;28;61832;-73
2023/12/13 08:47:45;;;;;;;;;2.00;0.00;;;;;-146.67;52.49;74018.78;5058940;28;62856;-73
2023/12/13 08:50:10;;;;;;;;;1.00;1.00;;;;;-146.67;52.34;74020.78;5050093;28;62003;-73
2023/12/13 08:52:36;;;;;;;;;0.00;0.00;;;;;-146.67;52.61;74012.81;5049949;28;61946;-73
2023/12/13 08:55:01;;;;;;;;;1.50;0.25;;;;;-146.67;52.56;74010.81;5050517;28;62033;-73
2023/12/13 08:57:26;;;;;;;;;3.50;0.00;;;;;-146.67;52.10;74004.81;5048730;28;61818;-73
2023/12/13 08:59:52;;;;;;;;;0.00;0.00;;;;;-146.67;52.47;74000.81;5040530;28;61869;-72
2023/12/13 09:02:17;;;;;;;;;4.00;1.00;;;;;-146.67;52.26;73998.84;5042029;28;61981;-73
2023/12/13 09:04:43;;;;;;;;;0.50;0.00;;;;;-146.67;52.06;73996.84;5055862;28;61915;-73
2023/12/13 09:07:08;;;;;;;;;1.00;1.00;;;;;-146.67;51.96;74006.81;5040527;28;61806;-74
2023/12/13 09:09:36;;;;;;;;;0.00;0.00;;;;;-146.67;52.12;73990.84;5042269;28;61790;-74
2023/12/13 09:12:02;;;;;;;;;3.25;0.50;;;;;-146.67;51.69;73990.84;5044134;28;61941;-74
2023/12/13 09:14:27;;;;;;;;;0.75;0.75;;;;;-146.67;52.13;73984.84;5056207;28;61816;-74
2023/12/13 09:16:53;;;;;;;;;2.00;0.75;;;;;-146.67;51.67;73978.88;5062079;28;63892;-74
2023/12/13 09:19:19;;;;;;;;;3.00;0.50;;;;;-146.67;51.76;73982.88;5063691;28;61860;-74
2023/12/13 09:21:44;;;;;;;;;1.25;1.00;;;;;-146.67;51.65;73988.84;5063890;28;61873;-74
2023/12/13 09:24:09;;;;;;;;;2.00;1.00;;;;;-146.67;51.58;73980.88;5064123;28;61806;-73
2023/12/13 09:26:38;;;;;;;;;1.25;0.50;;;;;-146.67;51.65;73980.88;5063034;28;61748;-74
2023/12/13 09:29:04;;;;;;;;;1.50;1.00;;;;;-146.67;51.70;73972.88;5063811;28;61804;-74
2023/12/13 09:31:30;;;;;;;;;0.00;0.00;;;;;-146.67;51.65;73972.88;5063370;28;62108;-74
2023/12/13 09:33:57;;;;;;;;;1.00;0.00;;;;;-146.67;51.57;73978.88;5064017;28;61962;-74
2023/12/13 09:36:22;;;;;;;;;1.00;1.00;;;;;-146.67;51.75;73968.88;5063444;28;62674;-73
2023/12/13 09:38:48;;;;;;;;;0.25;0.25;;;;;-146.67;51.26;73974.88;5063641;28;61808;-74
2023/12/13 09:41:23;;;;;;;;;2.00;0.50;;;;;-146.67;51.68;73984.84;5063890;28;61753;-74
2023/12/13 09:43:49;;;;;;;;;1.00;1.00;;;;;-146.67;51.92;73968.88;5064035;28;61702;-74
2023/12/13 09:46:18;;;;;;;;;2.00;1.00;;;;;-146.67;51.46;73958.91;5062916;28;62658;-74
2023/12/13 09:48:44;;;;;;;;;2.50;0.75;;;;;-146.67;51.59;73934.94;5063319;28;62190;-74
2023/12/13 09:51:11;;;;;;;;;0.00;0.00;;;;;-146.67;51.04;73903.00;5062403;28;61889;-74
2023/12/13 09:53:39;;;;;;;;;1.50;0.50;;;;;-146.67;50.79;73893.03;5064082;28;61877;-74
2023/12/13 09:56:08;;;;;;;;;2.25;1.00;;;;;-146.67;50.68;73887.03;5055734;28;62209;-74
2023/12/13 09:58:35;;;;;;;;;0.25;0.25;;;;;-146.67;50.44;73895.03;5050853;28;62107;-74
2023/12/13 10:01:12;;;;;;;;;2.50;0.50;;;;;-146.67;50.84;73875.06;5056197;28;61976;-74
2023/12/13 10:03:39;;;;;;;;;1.00;1.00;;;;;-146.67;50.26;73849.13;5063602;28;61945;-74
2023/12/13 10:06:07;;;;;;;;;0.00;0.00;;;;;-146.67;50.43;73837.16;5060311;28;62155;-74
2023/12/13 10:08:32;;;;;;;;;2.00;0.75;;;;;-146.67;49.95;73847.13;5053895;28;61727;-74
2023/12/13 10:10:57;;;;;;;;;2.00;0.75;;;;;-146.67;49.96;73875.06;5052215;28;61675;-74
2023/12/13 10:13:25;;;;;;;;;3.00;0.00;;;;;-146.67;50.16;73887.03;5054555;28;61906;-74
2023/12/13 10:15:59;;;;;;;;;0.00;0.00;;;;;-146.67;50.64;73913.00;5047089;28;63828;-74
2023/12/13 10:18:24;;;;;;;;;0.50;0.00;;;;;-146.67;50.76;73915.00;5047661;28;62294;-74
2023/12/13 10:20:50;;;;;;;;;2.00;1.00;;;;;-146.67;50.83;73936.94;5048807;28;62105;-74
2023/12/13 10:23:16;;;;;;;;;2.25;1.00;;;;;-146.67;50.93;73944.94;5063486;28;62030;-74
2023/12/13 10:25:42;;;;;;;;;0.00;0.00;;;;;-146.67;51.31;73944.94;5062445;28;62121;-74
2023/12/13 10:28:07;;;;;;;;;1.00;1.00;;;;;-146.67;50.96;73946.94;5062840;28;62136;-74
2023/12/13 10:30:33;;;;;;;;;0.50;0.25;;;;;-146.67;50.76;73942.94;5063304;28;62319;-74
2023/12/13 10:32:59;;;;;;;;;1.00;0.00;;;;;-146.67;51.05;73950.94;5062860;28;63096;-74
2023/12/13 10:35:25;;;;;;;;;0.75;0.75;;;;;-146.67;50.66;73952.91;5062650;28;62701;-74
2023/12/13 10:37:52;;;;;;;;;3.00;1.00;;;;;-146.67;50.92;73974.88;5049734;28;61789;-74
2023/12/13 10:40:20;;;;;;;;;3.50;0.00;;;;;-146.67;51.39;73992.84;5063300;28;61755;-74
2023/12/13 10:42:51;;;;;;;;;1.00;1.00;;;;;-146.67;51.10;73988.84;5053593;28;62159;-74
2023/12/13 10:45:17;;;;;;;;;0.75;0.75;;;;;-146.67;51.12;73996.84;5063004;28;61684;-74
2023/12/13 10:47:45;;;;;;;;;5.00;2.00;;;;;-146.67;51.36;73984.84;5051319;28;62004;-74
2023/12/13 10:50:11;;;;;;;;;1.00;1.00;;;;;-146.67;51.05;73992.84;5060819;28;62018;-74
2023/12/13 10:52:38;;;;;;;;;3.25;1.00;;;;;-146.67;51.24;73998.84;5062696;28;61867;-74
2023/12/13 10:55:07;;;;;;;;;3.50;0.00;;;;;-146.67;51.47;74018.78;5061192;28;63553;-74
2023/12/13 10:57:33;;;;;;;;;0.00;0.00;;;;;-146.67;52.08;74036.75;5062445;28;61694;-74
2023/12/13 10:59:59;;;;;;;;;1.50;1.50;;;;;-146.67;51.85;74022.78;5062986;28;61765;-74
2023/12/13 11:02:27;;;;;;;;;2.00;1.00;;;;;-146.67;51.92;74002.81;5062405;28;62037;-74
2023/12/13 11:04:53;;;;;;;;;2.00;1.00;;;;;-146.67;51.54;73968.88;5061471;28;62877;-74
2023/12/13 11:07:19;;;;;;;;;2.50;0.25;;;;;-146.67;51.28;73932.97;5062489;28;61737;-74
2023/12/13 11:09:51;;;;;;;;;3.00;1.50;;;;;-146.67;50.96;73913.00;5062411;28;61914;-74